createdAt,value
2023-02-18T00:00:35.052Z,60.07
2023-02-18T00:03:27.694Z,59.92
2023-02-18T00:06:00.392Z,59.59
2023-02-18T00:08:33.194Z,59.72
2023-02-18T00:11:08.166Z,59.37
2023-02-18T00:13:41.057Z,59.76
2023-02-18T00:16:15.451Z,59.80
2023-02-18T00:18:47.979Z,59.92
2023-02-18T00:21:20.640Z,60.04
2023-02-18T00:23:53.096Z,60.19
2023-02-18T00:26:26.315Z,60.08
2023-02-18T00:28:59.999Z,60.33
2023-02-18T00:31:34.503Z,60.50
2023-02-18T00:34:07.929Z,60.61
2023-02-18T00:36:41.148Z,60.78
2023-02-18T00:39:14.226Z,60.54
2023-02-18T00:41:46.956Z,60.56
2023-02-18T00:44:20.793Z,60.87
2023-02-18T00:46:55.652Z,60.66
2023-02-18T00:49:28.754Z,60.83
2023-02-18T00:52:01.140Z,60.69
2023-02-18T00:54:33.442Z,60.29
2023-02-18T00:57:06.363Z,60.27
2023-02-18T00:59:38.678Z,60.19
2023-02-18T01:02:12.331Z,60.32
2023-02-18T01:04:44.734Z,60.85
2023-02-18T01:07:17.426Z,61.13
2023-02-18T01:09:49.798Z,61.01
2023-02-18T01:12:22.550Z,61.03
2023-02-18T01:14:55.127Z,60.95
2023-02-18T01:17:27.676Z,61.36
2023-02-18T01:20:00.924Z,61.22
2023-02-18T01:22:33.634Z,60.98
2023-02-18T01:25:06.465Z,60.81
2023-02-18T01:27:39.804Z,61.16
2023-02-18T01:30:17.904Z,61.07
2023-02-18T01:32:50.666Z,61.17
2023-02-18T01:35:24.232Z,61.37
2023-02-18T01:37:57.127Z,61.40
2023-02-18T01:40:31.801Z,61.41
2023-02-18T01:43:05.397Z,61.76
2023-02-18T01:46:07.395Z,61.45
2023-02-18T01:48:43.752Z,61.47
2023-02-18T01:51:20.207Z,61.19
2023-02-18T01:53:57.577Z,61.61
2023-02-18T01:56:36.094Z,61.33
2023-02-18T01:59:11.871Z,61.32
2023-02-18T02:01:47.099Z,61.36
2023-02-18T02:04:21.414Z,61.26
2023-02-18T02:06:57.187Z,61.62
2023-02-18T02:09:32.644Z,61.81
2023-02-18T02:12:45.252Z,62.01
2023-02-18T02:15:35.142Z,61.96
2023-02-18T02:18:28.794Z,61.76
2023-02-18T02:21:45.936Z,61.86
2023-02-18T02:25:06.528Z,61.73
2023-02-18T02:27:59.543Z,62.34
2023-02-18T02:30:58.221Z,62.67
2023-02-18T02:34:04.248Z,62.31
2023-02-18T02:36:44.162Z,61.85
2023-02-18T02:39:27.917Z,61.61
2023-02-18T02:42:11.181Z,61.86
2023-02-18T02:44:49.727Z,61.58
2023-02-18T02:47:28.760Z,62.10
2023-02-18T02:50:08.094Z,62.34
2023-02-18T02:52:48.125Z,62.23
2023-02-18T02:55:20.570Z,61.67
2023-02-18T02:57:55.531Z,61.99
2023-02-18T03:00:40.079Z,61.92
2023-02-18T03:03:34.742Z,62.14
2023-02-18T03:06:32.786Z,62.32
2023-02-18T03:09:17.366Z,62.56
2023-02-18T03:11:59.707Z,62.55
2023-02-18T03:14:42.717Z,61.87
2023-02-18T03:17:23.166Z,61.85
2023-02-18T03:20:09.839Z,61.44
2023-02-18T03:22:47.483Z,61.55
2023-02-18T03:25:24.570Z,61.70
2023-02-18T03:28:01.426Z,61.79
2023-02-18T03:30:38.322Z,61.92
2023-02-18T03:33:13.622Z,61.68
2023-02-18T03:35:51.040Z,61.92
2023-02-18T03:38:26.268Z,61.94
2023-02-18T03:40:59.195Z,62.22
2023-02-18T03:43:31.988Z,61.86
2023-02-18T03:46:06.256Z,61.66
2023-02-18T03:48:38.760Z,61.73
2023-02-18T03:51:11.437Z,61.57
2023-02-18T03:53:46.053Z,61.39
2023-02-18T03:56:19.668Z,62.00
2023-02-18T03:58:52.157Z,62.01
2023-02-18T04:01:25.284Z,62.06
2023-02-18T04:03:57.854Z,61.90
2023-02-18T04:06:30.781Z,61.68
2023-02-18T04:09:08.826Z,61.37
2023-02-18T04:11:42.413Z,61.50
2023-02-18T04:14:16.193Z,61.61
2023-02-18T04:16:50.125Z,61.79
2023-02-18T04:19:22.632Z,61.97
2023-02-18T04:21:55.080Z,61.85
2023-02-18T04:24:29.093Z,62.13
2023-02-18T04:27:01.671Z,61.91
2023-02-18T04:29:34.145Z,62.23
2023-02-18T04:32:06.906Z,62.21
2023-02-18T04:34:39.271Z,62.50
2023-02-18T04:37:14.552Z,62.09
2023-02-18T04:39:45.174Z,61.82
2023-02-18T04:42:17.519Z,61.82
2023-02-18T04:44:50.083Z,62.16
2023-02-18T04:47:22.843Z,62.12
2023-02-18T04:49:55.601Z,62.13
2023-02-18T04:52:31.695Z,62.11
2023-02-18T04:55:04.085Z,62.35
2023-02-18T04:57:36.485Z,62.51
2023-02-18T05:00:12.509Z,62.60
2023-02-18T05:02:45.582Z,62.59
2023-02-18T05:05:18.507Z,62.85
2023-02-18T05:07:51.255Z,62.90
2023-02-18T05:10:23.871Z,62.67
2023-02-18T05:12:57.266Z,62.30
2023-02-18T05:15:30.034Z,62.40
2023-02-18T05:18:03.155Z,62.57
2023-02-18T05:20:36.180Z,62.91
2023-02-18T05:23:08.565Z,63.30
2023-02-18T05:25:40.936Z,62.99
2023-02-18T05:28:13.344Z,63.14
2023-02-18T05:30:46.666Z,63.20
2023-02-18T05:33:19.667Z,62.88
2023-02-18T05:35:52.573Z,62.75
2023-02-18T05:38:25.615Z,62.69
2023-02-18T05:40:58.214Z,62.88
2023-02-18T05:43:30.739Z,63.14
2023-02-18T05:46:03.222Z,63.01
2023-02-18T05:48:35.917Z,63.09
2023-02-18T05:51:09.008Z,63.31
2023-02-18T05:53:43.687Z,62.94
2023-02-18T05:56:16.158Z,63.34
2023-02-18T05:58:48.876Z,63.45
2023-02-18T06:01:21.333Z,63.59
2023-02-18T06:03:53.994Z,63.62
2023-02-18T06:06:28.892Z,63.72
2023-02-18T06:09:04.355Z,63.93
2023-02-18T06:11:36.933Z,64.24
2023-02-18T06:14:10.929Z,64.56
2023-02-18T06:16:44.878Z,64.50
2023-02-18T06:19:17.400Z,64.46
2023-02-18T06:21:49.760Z,64.50
2023-02-18T06:24:22.338Z,64.27
2023-02-18T06:26:54.850Z,64.08
2023-02-18T06:29:29.910Z,63.83
2023-02-18T06:32:02.976Z,64.16
2023-02-18T06:34:35.848Z,64.61
2023-02-18T06:37:08.314Z,64.30
2023-02-18T06:39:42.094Z,64.52
2023-02-18T06:42:15.437Z,64.49
2023-02-18T06:44:47.786Z,64.46
2023-02-18T06:47:20.481Z,64.47
2023-02-18T06:49:53.082Z,64.88
2023-02-18T06:52:25.404Z,64.73
2023-02-18T06:54:58.617Z,64.37
2023-02-18T06:57:31.230Z,64.18
2023-02-18T07:00:03.797Z,64.49
2023-02-18T07:02:36.338Z,64.17
2023-02-18T07:05:09.601Z,63.80
2023-02-18T07:07:42.033Z,64.07
2023-02-18T07:10:15.032Z,64.09
2023-02-18T07:12:47.302Z,64.07
2023-02-18T07:15:24.351Z,64.50
2023-02-18T07:17:56.848Z,64.77
2023-02-18T07:20:29.995Z,64.71
2023-02-18T07:23:02.407Z,64.81
2023-02-18T07:25:34.927Z,65.12
2023-02-18T07:28:07.633Z,64.77
2023-02-18T07:30:40.341Z,65.07
2023-02-18T07:33:14.217Z,64.53
2023-02-18T07:35:47.091Z,64.06
2023-02-18T07:38:19.470Z,64.25
2023-02-18T07:40:52.900Z,63.90
2023-02-18T07:43:25.464Z,63.95
2023-02-18T07:45:57.868Z,64.56
2023-02-18T07:48:30.270Z,64.27
2023-02-18T07:51:06.457Z,63.56
2023-02-18T07:53:39.713Z,63.40
2023-02-18T07:56:12.275Z,63.31
2023-02-18T07:58:44.806Z,63.17
2023-02-18T08:01:17.681Z,63.11
2023-02-18T08:03:50.143Z,63.10
2023-02-18T08:06:27.448Z,63.03
2023-02-18T08:09:00.230Z,62.88
2023-02-18T08:11:33.722Z,62.82
2023-02-18T08:14:06.435Z,62.58
2023-02-18T08:16:39.559Z,62.62
2023-02-18T08:19:12.260Z,62.64
2023-02-18T08:21:46.358Z,62.08
2023-02-18T08:24:18.994Z,61.87
2023-02-18T08:27:00.507Z,61.70
2023-02-18T08:29:33.624Z,61.73
2023-02-18T08:32:06.580Z,61.25
2023-02-18T08:34:39.042Z,61.43
2023-02-18T08:37:11.777Z,61.83
2023-02-18T08:39:44.211Z,61.49
2023-02-18T08:42:18.568Z,61.42
2023-02-18T08:44:51.160Z,61.81
2023-02-18T08:48:17.325Z,60.94
2023-02-18T08:50:16.223Z,60.50
2023-02-18T08:52:48.790Z,60.34
2023-02-18T08:55:21.880Z,60.56
2023-02-18T08:57:54.709Z,60.26
2023-02-18T09:00:28.558Z,59.07
2023-02-18T09:03:01.350Z,58.77
2023-02-18T09:05:34.057Z,58.54
2023-02-18T09:08:06.697Z,57.45
2023-02-18T09:10:39.760Z,58.53
2023-02-18T09:13:13.006Z,58.02
2023-02-18T09:15:45.450Z,58.12
2023-02-18T09:18:17.919Z,57.66
2023-02-18T09:20:50.869Z,57.49
2023-02-18T09:23:23.656Z,57.35
2023-02-18T09:25:56.479Z,56.83
2023-02-18T09:28:29.477Z,56.49
2023-02-18T09:31:07.948Z,56.60
2023-02-18T09:33:43.298Z,56.26
2023-02-18T09:36:18.181Z,55.69
2023-02-18T09:38:51.555Z,54.95
2023-02-18T09:41:31.650Z,54.86
2023-02-18T09:44:07.270Z,55.22
2023-02-18T09:46:44.550Z,55.29
2023-02-18T09:49:20.651Z,54.47
2023-02-18T09:51:53.301Z,54.25
2023-02-18T09:54:28.234Z,53.80
2023-02-18T09:57:02.294Z,53.90
2023-02-18T09:59:35.159Z,53.29
2023-02-18T10:02:17.511Z,52.86
2023-02-18T10:04:52.855Z,52.56
2023-02-18T10:07:28.893Z,52.28
2023-02-18T10:10:12.964Z,51.65
2023-02-18T10:12:46.451Z,51.63
2023-02-18T10:15:25.403Z,51.27
2023-02-18T10:17:59.572Z,51.74
2023-02-18T10:20:34.257Z,51.84
2023-02-18T10:23:07.026Z,52.52
2023-02-18T10:25:46.390Z,51.76
2023-02-18T10:28:24.145Z,51.59
2023-02-18T10:31:03.692Z,51.24
2023-02-18T10:33:44.203Z,51.57
2023-02-18T10:36:26.879Z,51.60
2023-02-18T10:39:32.286Z,50.88
2023-02-18T10:42:16.816Z,50.40
2023-02-18T10:45:00.309Z,50.55
2023-02-18T10:47:44.302Z,51.00
2023-02-18T10:50:24.999Z,50.97
2023-02-18T10:53:01.328Z,52.01
2023-02-18T10:55:43.136Z,51.84
2023-02-18T10:58:35.675Z,51.14
2023-02-18T11:01:15.113Z,52.09
2023-02-18T11:03:49.382Z,51.65
2023-02-18T11:06:29.542Z,51.32
2023-02-18T11:09:03.493Z,51.60
2023-02-18T11:11:39.664Z,52.10
2023-02-18T11:14:19.434Z,52.00
2023-02-18T11:16:55.435Z,51.98
2023-02-18T11:19:39.289Z,52.16
2023-02-18T11:22:20.613Z,53.13
2023-02-18T11:24:57.665Z,53.79
2023-02-18T11:27:39.576Z,53.48
2023-02-18T11:30:22.801Z,53.34
2023-02-18T11:32:58.917Z,54.47
2023-02-18T11:35:33.652Z,54.82
2023-02-18T11:38:23.327Z,55.25
2023-02-18T11:40:59.134Z,55.81
2023-02-18T11:43:35.679Z,57.31
2023-02-18T11:46:16.497Z,57.55
2023-02-18T11:48:49.309Z,59.50
2023-02-18T11:51:25.178Z,60.09
2023-02-18T11:54:06.146Z,60.93
2023-02-18T11:56:39.523Z,60.72
2023-02-18T11:59:14.059Z,61.12
2023-02-18T12:01:52.362Z,62.40
2023-02-18T12:04:31.113Z,62.63
2023-02-18T12:07:18.448Z,62.52
2023-02-18T12:09:56.669Z,63.45
2023-02-18T12:12:32.320Z,64.52
2023-02-18T12:15:04.864Z,65.42
2023-02-18T12:18:00.670Z,66.85
2023-02-18T12:20:56.080Z,67.74
2023-02-18T12:23:34.537Z,67.15
2023-02-18T12:26:18.299Z,68.06
2023-02-18T12:29:06.464Z,68.64
2023-02-18T12:31:56.562Z,69.63
2023-02-18T12:34:53.583Z,70.69
2023-02-18T12:37:46.730Z,71.94
2023-02-18T12:40:39.869Z,70.64
2023-02-18T12:43:24.129Z,70.83
2023-02-18T12:46:16.194Z,70.80
2023-02-18T12:49:05.167Z,72.03
2023-02-18T12:51:46.365Z,72.43
2023-02-18T12:54:42.635Z,74.13
2023-02-18T12:57:39.660Z,74.72
2023-02-18T13:00:38.299Z,74.49
2023-02-18T13:03:51.410Z,75.40
2023-02-18T13:06:49.741Z,75.44
2023-02-18T13:09:34.291Z,75.87
2023-02-18T13:12:12.440Z,76.99
2023-02-18T13:14:51.713Z,76.56
2023-02-18T13:17:26.606Z,77.50
2023-02-18T13:20:04.181Z,77.84
2023-02-18T13:22:37.417Z,77.90
2023-02-18T13:25:16.328Z,78.43
2023-02-18T13:27:55.349Z,76.88
2023-02-18T13:30:35.831Z,75.40
2023-02-18T13:33:18.932Z,75.39
2023-02-18T13:35:59.790Z,75.74
2023-02-18T13:38:57.084Z,75.61
2023-02-18T13:41:30.409Z,76.14
2023-02-18T13:44:02.934Z,76.59
2023-02-18T13:46:51.110Z,77.37
2023-02-18T13:49:25.928Z,77.34
2023-02-18T13:52:00.024Z,77.66
2023-02-18T13:54:36.947Z,77.68
2023-02-18T13:57:15.393Z,76.95
2023-02-18T13:59:51.328Z,76.21
2023-02-18T14:02:36.211Z,75.97
2023-02-18T14:05:21.637Z,74.86
2023-02-18T14:08:07.361Z,75.04
2023-02-18T14:10:40.815Z,75.26
2023-02-18T14:13:40.056Z,75.65
2023-02-18T14:16:13.313Z,76.00
2023-02-18T14:19:03.346Z,76.20
2023-02-18T14:21:43.956Z,76.33
2023-02-18T14:24:36.392Z,76.52
2023-02-18T14:27:18.076Z,76.46
2023-02-18T14:29:55.382Z,76.36
2023-02-18T14:32:28.089Z,76.70
2023-02-18T14:35:22.006Z,77.15
2023-02-18T14:38:42.296Z,77.33
2023-02-18T14:41:38.105Z,77.88
2023-02-18T14:44:30.843Z,77.64
2023-02-18T14:47:26.942Z,76.78
2023-02-18T14:50:01.231Z,76.95
2023-02-18T14:52:40.140Z,77.57
2023-02-18T14:55:20.900Z,76.43
2023-02-18T14:57:56.946Z,76.26
2023-02-18T15:00:34.416Z,75.99
2023-02-18T15:03:14.038Z,75.72
2023-02-18T15:05:47.510Z,75.41
2023-02-18T15:08:21.769Z,74.98
2023-02-18T15:10:59.268Z,74.98
2023-02-18T15:13:36.222Z,75.81
2023-02-18T15:16:11.509Z,76.38
2023-02-18T15:18:50.320Z,76.44
2023-02-18T15:21:29.019Z,75.43
2023-02-18T15:24:10.092Z,75.51
2023-02-18T15:26:49.207Z,75.27
2023-02-18T15:29:25.400Z,75.34
2023-02-18T15:32:00.948Z,75.60
2023-02-18T15:34:41.180Z,75.49
2023-02-18T15:37:16.062Z,74.98
2023-02-18T15:39:49.119Z,75.19
2023-02-18T15:42:29.503Z,75.35
2023-02-18T15:45:06.798Z,75.43
2023-02-18T15:47:45.721Z,75.39
2023-02-18T15:50:23.665Z,75.26
2023-02-18T15:52:58.541Z,75.01
2023-02-18T15:55:36.295Z,75.25
2023-02-18T15:58:14.556Z,75.29
2023-02-18T16:00:52.503Z,75.16
2023-02-18T16:03:27.961Z,75.20
2023-02-18T16:06:19.039Z,74.73
2023-02-18T16:09:02.205Z,75.04
2023-02-18T16:11:39.208Z,74.91
2023-02-18T16:14:26.612Z,74.57
2023-02-18T16:17:16.013Z,74.54
2023-02-18T16:20:03.873Z,74.67
2023-02-18T16:22:44.808Z,74.65
2023-02-18T16:25:23.326Z,74.85
2023-02-18T16:28:06.591Z,74.53
2023-02-18T16:30:41.542Z,75.17
2023-02-18T16:33:14.309Z,74.76
2023-02-18T16:35:50.339Z,74.66
2023-02-18T16:38:26.004Z,74.97
2023-02-18T16:40:58.655Z,75.22
2023-02-18T16:43:33.246Z,74.85
2023-02-18T16:46:15.888Z,74.88
2023-02-18T16:48:52.199Z,75.01
2023-02-18T16:51:27.743Z,74.82
2023-02-18T16:54:00.369Z,74.80
2023-02-18T16:56:35.999Z,74.91
2023-02-18T16:59:09.046Z,74.99
2023-02-18T17:01:44.912Z,75.07
2023-02-18T17:04:21.228Z,74.94
2023-02-18T17:06:53.896Z,74.56
2023-02-18T17:09:27.667Z,74.70
2023-02-18T17:12:02.026Z,74.95
2023-02-18T17:14:34.939Z,75.26
2023-02-18T17:17:14.991Z,75.38
2023-02-18T17:19:47.464Z,75.18
2023-02-18T17:22:19.807Z,75.13
2023-02-18T17:24:52.336Z,75.38
2023-02-18T17:27:24.783Z,75.54
2023-02-18T17:29:57.745Z,75.46
2023-02-18T17:32:30.502Z,75.33
2023-02-18T17:35:03.162Z,75.26
2023-02-18T17:37:35.888Z,75.22
2023-02-18T17:40:10.888Z,74.48
2023-02-18T17:42:43.555Z,74.71
2023-02-18T17:45:28.906Z,74.88
2023-02-18T17:48:02.674Z,75.03
2023-02-18T17:50:35.419Z,75.14
2023-02-18T17:53:10.654Z,75.24
2023-02-18T17:55:44.488Z,75.21
2023-02-18T17:58:18.692Z,74.78
2023-02-18T18:00:52.854Z,74.70
2023-02-18T18:03:25.588Z,74.56
2023-02-18T18:05:58.927Z,74.61
2023-02-18T18:08:31.676Z,74.92
2023-02-18T18:11:05.969Z,75.10
2023-02-18T18:13:38.929Z,75.52
2023-02-18T18:16:13.381Z,75.80
2023-02-18T18:18:46.432Z,76.01
2023-02-18T18:21:23.378Z,76.22
2023-02-18T18:23:56.438Z,76.32
2023-02-18T18:26:30.126Z,76.50
2023-02-18T18:29:02.818Z,76.73
2023-02-18T18:31:36.933Z,76.82
2023-02-18T18:34:10.924Z,77.06
2023-02-18T18:36:45.227Z,77.24
2023-02-18T18:39:17.879Z,77.58
2023-02-18T18:41:52.986Z,77.79
2023-02-18T18:44:26.201Z,77.70
2023-02-18T18:46:58.840Z,77.03
2023-02-18T18:49:31.212Z,77.00
2023-02-18T18:52:04.553Z,76.95
2023-02-18T18:54:37.529Z,76.91
2023-02-18T18:57:10.566Z,77.08
2023-02-18T18:59:43.280Z,77.08
2023-02-18T19:02:18.679Z,76.99
2023-02-18T19:04:51.676Z,77.12
2023-02-18T19:07:24.629Z,77.08
2023-02-18T19:09:57.389Z,77.13
2023-02-18T19:12:30.140Z,77.58
2023-02-18T19:15:03.345Z,77.53
2023-02-18T19:17:35.880Z,77.71
2023-02-18T19:20:13.437Z,77.85
2023-02-18T19:22:46.012Z,77.45
2023-02-18T19:25:19.834Z,77.89
2023-02-18T19:27:53.023Z,78.10
2023-02-18T19:30:27.638Z,78.17
2023-02-18T19:33:02.904Z,78.00
2023-02-18T19:35:37.405Z,77.87
2023-02-18T19:38:12.734Z,77.52
2023-02-18T19:40:46.739Z,77.33
2023-02-18T19:43:19.407Z,77.90
2023-02-18T19:45:52.152Z,78.16
2023-02-18T19:48:25.085Z,77.98
2023-02-18T19:50:57.561Z,77.27
2023-02-18T19:53:30.819Z,76.96
2023-02-18T19:56:06.377Z,76.73
2023-02-18T19:58:41.141Z,76.64
2023-02-18T20:01:15.788Z,76.94
2023-02-18T20:03:48.618Z,77.28
2023-02-18T20:06:22.251Z,77.16
2023-02-18T20:08:55.282Z,77.31
2023-02-18T20:11:28.500Z,77.05
2023-02-18T20:14:01.077Z,77.00
2023-02-18T20:16:33.743Z,76.53
2023-02-18T20:19:06.275Z,76.61
2023-02-18T20:21:39.203Z,76.52
2023-02-18T20:24:12.843Z,76.60
2023-02-18T20:26:45.775Z,76.36
2023-02-18T20:29:22.133Z,76.62
2023-02-18T20:31:55.226Z,76.90
2023-02-18T20:34:27.991Z,76.88
2023-02-18T20:37:00.672Z,76.80
2023-02-18T20:39:33.374Z,76.85
2023-02-18T20:42:15.830Z,76.91
2023-02-18T20:44:49.696Z,76.32
2023-02-18T20:47:22.109Z,76.49
2023-02-18T20:49:54.679Z,76.91
2023-02-18T20:52:27.910Z,77.57
2023-02-18T20:55:00.619Z,77.36
2023-02-18T20:57:34.475Z,76.84
2023-02-18T21:00:08.461Z,76.69
2023-02-18T21:02:41.344Z,76.78
2023-02-18T21:05:14.097Z,76.65
2023-02-18T21:07:46.879Z,76.54
2023-02-18T21:10:21.472Z,76.91
2023-02-18T21:12:54.159Z,76.73
2023-02-18T21:15:26.677Z,76.16
2023-02-18T21:17:59.886Z,75.97
2023-02-18T21:20:32.523Z,76.15
2023-02-18T21:23:05.636Z,75.82
2023-02-18T21:25:40.874Z,75.70
2023-02-18T21:28:15.792Z,75.69
2023-02-18T21:30:48.840Z,75.97
2023-02-18T21:33:21.279Z,76.19
2023-02-18T21:35:53.954Z,76.08
2023-02-18T21:38:26.681Z,76.10
2023-02-18T21:40:59.420Z,76.12
2023-02-18T21:43:32.561Z,75.90
2023-02-18T21:46:15.584Z,76.50
2023-02-18T21:49:05.370Z,76.86
2023-02-18T21:52:00.576Z,76.40
2023-02-18T21:54:32.073Z,76.90
2023-02-18T21:57:07.187Z,76.66
2023-02-18T21:59:40.356Z,76.64
2023-02-18T22:02:18.186Z,76.82
2023-02-18T22:04:51.746Z,77.15
2023-02-18T22:07:26.481Z,77.21
2023-02-18T22:09:57.270Z,77.36
2023-02-18T22:12:32.251Z,77.19
2023-02-18T22:15:05.508Z,76.98
2023-02-18T22:17:39.534Z,76.91
2023-02-18T22:20:13.571Z,76.92
2023-02-18T22:22:46.114Z,77.43
2023-02-18T22:25:18.675Z,77.16
2023-02-18T22:27:51.718Z,76.81
2023-02-18T22:30:24.225Z,77.22
2023-02-18T22:32:56.742Z,77.32
2023-02-18T22:35:29.391Z,77.05
2023-02-18T22:38:01.925Z,77.54
2023-02-18T22:40:34.533Z,77.50
2023-02-18T22:43:07.420Z,77.53
2023-02-18T22:45:40.224Z,77.59
2023-02-18T22:48:12.920Z,77.46
2023-02-18T22:50:45.299Z,77.70
2023-02-18T22:53:17.849Z,77.94
2023-02-18T22:55:50.225Z,77.92
2023-02-18T22:58:22.854Z,78.17
2023-02-18T23:00:55.256Z,77.61
2023-02-18T23:03:29.489Z,77.76
2023-02-18T23:06:06.212Z,77.60
2023-02-18T23:08:38.652Z,77.48
2023-02-18T23:11:14.545Z,77.47
2023-02-18T23:14:08.620Z,77.23
2023-02-18T23:16:55.740Z,77.17
2023-02-18T23:19:31.567Z,76.98
2023-02-18T23:22:09.110Z,77.37
2023-02-18T23:24:43.900Z,77.45
2023-02-18T23:27:18.489Z,77.57
2023-02-18T23:29:51.153Z,77.25
2023-02-18T23:32:23.576Z,77.33
2023-02-18T23:34:56.122Z,77.33
2023-02-18T23:37:44.021Z,77.38
2023-02-18T23:40:17.782Z,77.44
2023-02-18T23:42:50.289Z,76.99
2023-02-18T23:45:23.347Z,76.85
2023-02-18T23:47:56.160Z,77.03
2023-02-18T23:50:28.863Z,77.52
2023-02-18T23:53:01.556Z,77.19
2023-02-18T23:55:34.070Z,77.06
2023-02-18T23:58:06.494Z,76.70
